sensor_id;sensor_type;location;lat;lon;timestamp;P1;durP1;ratioP1;P2;durP2;ratioP2
7935;SDS011;4013;49.744;8.118;2024-02-14T05:30:13;3.93;;;2.10;;
7935;SDS011;4013;49.744;8.118;2024-02-14T05:32:40;5.70;;;2.27;;
7935;SDS011;4013;49.744;8.118;2024-02-14T05:35:07;2.87;;;2.00;;
7935;SDS011;4013;49.744;8.118;2024-02-14T05:37:34;2.90;;;2.03;;
7935;SDS011;4013;49.744;8.118;2024-02-14T05:40:02;5.70;;;2.40;;
7935;SDS011;4013;49.744;8.118;2024-02-14T05:42:31;5.10;;;1.90;;
7935;SDS011;4013;49.744;8.118;2024-02-14T05:44:59;4.80;;;1.80;;
7935;SDS011;4013;49.744;8.118;2024-02-14T05:47:30;4.97;;;2.20;;
7935;SDS011;4013;49.744;8.118;2024-02-14T05:49:57;4.73;;;2.40;;
7935;SDS011;4013;49.744;8.118;2024-02-14T05:52:24;3.40;;;1.87;;
7935;SDS011;4013;49.744;8.118;2024-02-14T05:54:51;3.03;;;2.10;;
7935;SDS011;4013;49.744;8.118;2024-02-14T05:57:19;3.40;;;1.80;;
7935;SDS011;4013;49.744;8.118;2024-02-14T05:59:46;4.73;;;2.00;;
7935;SDS011;4013;49.744;8.118;2024-02-14T06:02:12;4.37;;;2.20;;
7935;SDS011;4013;49.744;8.118;2024-02-14T06:04:41;5.20;;;2.00;;
7935;SDS011;4013;49.744;8.118;2024-02-14T06:07:08;5.33;;;2.40;;
7935;SDS011;4013;49.744;8.118;2024-02-14T06:09:36;3.70;;;1.97;;
7935;SDS011;4013;49.744;8.118;2024-02-14T06:12:03;7.30;;;2.10;;
7935;SDS011;4013;49.744;8.118;2024-02-14T06:14:31;4.77;;;2.23;;
7935;SDS011;4013;49.744;8.118;2024-02-14T06:16:59;3.97;;;1.87;;
7935;SDS011;4013;49.744;8.118;2024-02-14T06:19:26;2.57;;;1.77;;
7935;SDS011;4013;49.744;8.118;2024-02-14T06:21:54;3.40;;;1.97;;
7935;SDS011;4013;49.744;8.118;2024-02-14T06:24:21;3.67;;;1.90;;
7935;SDS011;4013;49.744;8.118;2024-02-14T06:26:48;1.60;;;1.50;;
7935;SDS011;4013;49.744;8.118;2024-02-14T06:29:15;4.27;;;2.03;;
7935;SDS011;4013;49.744;8.118;2024-02-14T06:31:42;2.90;;;2.00;;
7935;SDS011;4013;49.744;8.118;2024-02-14T06:34:09;3.80;;;2.07;;
7935;SDS011;4013;49.744;8.118;2024-02-14T06:36:36;2.43;;;1.97;;
7935;SDS011;4013;49.744;8.118;2024-02-14T06:39:06;1.93;;;1.73;;
7935;SDS011;4013;49.744;8.118;2024-02-14T06:41:33;3.10;;;2.00;;
7935;SDS011;4013;49.744;8.118;2024-02-14T06:44:00;5.37;;;2.10;;
7935;SDS011;4013;49.744;8.118;2024-02-14T06:46:27;1.70;;;1.60;;
7935;SDS011;4013;49.744;8.118;2024-02-14T06:48:54;4.07;;;1.73;;
7935;SDS011;4013;49.744;8.118;2024-02-14T06:51:22;2.60;;;1.73;;
7935;SDS011;4013;49.744;8.118;2024-02-14T06:53:49;2.70;;;2.00;;
7935;SDS011;4013;49.744;8.118;2024-02-14T06:56:17;2.60;;;1.67;;
7935;SDS011;4013;49.744;8.118;2024-02-14T06:58:44;3.73;;;1.83;;
7935;SDS011;4013;49.744;8.118;2024-02-14T07:01:18;4.30;;;2.07;;
7935;SDS011;4013;49.744;8.118;2024-02-14T07:03:47;2.33;;;1.80;;
7935;SDS011;4013;49.744;8.118;2024-02-14T07:06:14;4.23;;;2.10;;
7935;SDS011;4013;49.744;8.118;2024-02-14T07:08:42;5.17;;;2.17;;
7935;SDS011;4013;49.744;8.118;2024-02-14T07:11:09;2.83;;;2.03;;
7935;SDS011;4013;49.744;8.118;2024-02-14T07:13:38;4.00;;;1.83;;
7935;SDS011;4013;49.744;8.118;2024-02-14T07:16:05;3.20;;;2.40;;
7935;SDS011;4013;49.744;8.118;2024-02-14T07:18:33;2.80;;;2.07;;
7935;SDS011;4013;49.744;8.118;2024-02-14T07:21:00;3.23;;;2.10;;
7935;SDS011;4013;49.744;8.118;2024-02-14T07:23:29;3.07;;;2.00;;
7935;SDS011;4013;49.744;8.118;2024-02-14T07:25:55;2.87;;;2.27;;
7935;SDS011;4013;49.744;8.118;2024-02-14T07:28:22;2.53;;;2.10;;
7935;SDS011;4013;49.744;8.118;2024-02-14T07:30:51;3.13;;;2.30;;
7935;SDS011;4013;49.744;8.118;2024-02-14T07:33:18;2.73;;;1.80;;
7935;SDS011;4013;49.744;8.118;2024-02-14T07:35:44;3.03;;;1.87;;
7935;SDS011;4013;49.744;8.118;2024-02-14T07:38:12;4.00;;;1.90;;
7935;SDS011;4013;49.744;8.118;2024-02-14T07:40:39;2.37;;;1.83;;
7935;SDS011;4013;49.744;8.118;2024-02-14T07:43:06;4.27;;;1.87;;
7935;SDS011;4013;49.744;8.118;2024-02-14T07:45:33;4.03;;;2.63;;
7935;SDS011;4013;49.744;8.118;2024-02-14T07:48:02;5.43;;;1.90;;
7935;SDS011;4013;49.744;8.118;2024-02-14T07:50:29;4.97;;;2.73;;
7935;SDS011;4013;49.744;8.118;2024-02-14T07:52:57;3.73;;;2.33;;
7935;SDS011;4013;49.744;8.118;2024-02-14T07:55:24;2.50;;;1.87;;
7935;SDS011;4013;49.744;8.118;2024-02-14T07:57:51;2.97;;;2.33;;
7935;SDS011;4013;49.744;8.118;2024-02-14T08:00:18;4.20;;;2.27;;
7935;SDS011;4013;49.744;8.118;2024-02-14T08:02:48;3.40;;;2.10;;
7935;SDS011;4013;49.744;8.118;2024-02-14T08:05:17;2.93;;;2.10;;
7935;SDS011;4013;49.744;8.118;2024-02-14T08:07:44;3.00;;;2.03;;
7935;SDS011;4013;49.744;8.118;2024-02-14T08:10:11;3.00;;;1.97;;
7935;SDS011;4013;49.744;8.118;2024-02-14T08:12:38;3.10;;;2.07;;
7935;SDS011;4013;49.744;8.118;2024-02-14T08:15:05;2.87;;;2.13;;
7935;SDS011;4013;49.744;8.118;2024-02-14T08:17:36;4.60;;;2.30;;
7935;SDS011;4013;49.744;8.118;2024-02-14T08:20:04;3.60;;;2.20;;
7935;SDS011;4013;49.744;8.118;2024-02-14T08:22:33;3.97;;;2.90;;
7935;SDS011;4013;49.744;8.118;2024-02-14T08:25:00;3.17;;;2.40;;
7935;SDS011;4013;49.744;8.118;2024-02-14T08:27:28;4.57;;;2.67;;
7935;SDS011;4013;49.744;8.118;2024-02-14T08:29:56;3.50;;;2.07;;
7935;SDS011;4013;49.744;8.118;2024-02-14T08:32:23;4.90;;;2.40;;
7935;SDS011;4013;49.744;8.118;2024-02-14T08:34:50;3.40;;;2.47;;
7935;SDS011;4013;49.744;8.118;2024-02-14T08:37:17;3.80;;;2.90;;
7935;SDS011;4013;49.744;8.118;2024-02-14T08:39:45;4.67;;;2.47;;
7935;SDS011;4013;49.744;8.118;2024-02-14T08:42:12;4.20;;;2.27;;
7935;SDS011;4013;49.744;8.118;2024-02-14T08:44:39;3.00;;;2.40;;
7935;SDS011;4013;49.744;8.118;2024-02-14T08:47:06;3.30;;;2.50;;
7935;SDS011;4013;49.744;8.118;2024-02-14T08:49:34;2.70;;;2.17;;
7935;SDS011;4013;49.744;8.118;2024-02-14T08:52:01;2.27;;;1.97;;
7935;SDS011;4013;49.744;8.118;2024-02-14T08:54:28;4.10;;;2.20;;
7935;SDS011;4013;49.744;8.118;2024-02-14T08:56:59;3.50;;;2.20;;
7935;SDS011;4013;49.744;8.118;2024-02-14T08:59:26;4.37;;;2.23;;
7935;SDS011;4013;49.744;8.118;2024-02-14T09:01:54;2.70;;;2.00;;
7935;SDS011;4013;49.744;8.118;2024-02-14T09:04:20;3.80;;;2.33;;
7935;SDS011;4013;49.744;8.118;2024-02-14T09:06:47;3.47;;;2.40;;
7935;SDS011;4013;49.744;8.118;2024-02-14T09:09:14;2.93;;;1.87;;
7935;SDS011;4013;49.744;8.118;2024-02-14T09:11:41;3.43;;;1.93;;
7935;SDS011;4013;49.744;8.118;2024-02-14T09:14:09;3.17;;;2.17;;
7935;SDS011;4013;49.744;8.118;2024-02-14T09:16:36;4.60;;;1.70;;
7935;SDS011;4013;49.744;8.118;2024-02-14T09:19:04;2.20;;;2.00;;
7935;SDS011;4013;49.744;8.118;2024-02-14T09:21:32;5.30;;;2.30;;
7935;SDS011;4013;49.744;8.118;2024-02-14T09:24:00;2.13;;;1.67;;
7935;SDS011;4013;49.744;8.118;2024-02-14T09:26:28;2.47;;;1.70;;
7935;SDS011;4013;49.744;8.118;2024-02-14T09:28:55;2.50;;;1.87;;
7935;SDS011;4013;49.744;8.118;2024-02-14T09:31:24;2.90;;;2.10;;
7935;SDS011;4013;49.744;8.118;2024-02-14T09:33:51;2.47;;;1.67;;
7935;SDS011;4013;49.744;8.118;2024-02-14T09:36:21;2.57;;;1.93;;
7935;SDS011;4013;49.744;8.118;2024-02-14T09:38:49;2.30;;;1.90;;
7935;SDS011;4013;49.744;8.118;2024-02-14T09:41:19;1.60;;;1.50;;
7935;SDS011;4013;49.744;8.118;2024-02-14T09:43:51;3.17;;;1.67;;
7935;SDS011;4013;49.744;8.118;2024-02-14T09:46:18;2.83;;;1.43;;
7935;SDS011;4013;49.744;8.118;2024-02-14T09:48:46;3.40;;;1.87;;
7935;SDS011;4013;49.744;8.118;2024-02-14T09:51:14;1.77;;;1.47;;
7935;SDS011;4013;49.744;8.118;2024-02-14T09:53:41;2.27;;;1.83;;
7935;SDS011;4013;49.744;8.118;2024-02-14T09:56:09;2.53;;;1.57;;
7935;SDS011;4013;49.744;8.118;2024-02-14T09:58:38;3.43;;;2.03;;
7935;SDS011;4013;49.744;8.118;2024-02-14T10:01:07;2.53;;;1.60;;
7935;SDS011;4013;49.744;8.118;2024-02-14T10:03:35;4.07;;;2.27;;
7935;SDS011;4013;49.744;8.118;2024-02-14T10:06:03;1.90;;;1.70;;
7935;SDS011;4013;49.744;8.118;2024-02-14T10:08:30;2.13;;;1.60;;
7935;SDS011;4013;49.744;8.118;2024-02-14T10:10:58;1.90;;;1.47;;
7935;SDS011;4013;49.744;8.118;2024-02-14T10:13:26;3.27;;;1.80;;
7935;SDS011;4013;49.744;8.118;2024-02-14T10:15:54;2.50;;;1.70;;
7935;SDS011;4013;49.744;8.118;2024-02-14T10:18:22;3.13;;;2.03;;
7935;SDS011;4013;49.744;8.118;2024-02-14T10:20:53;4.37;;;2.37;;
7935;SDS011;4013;49.744;8.118;2024-02-14T10:23:22;3.70;;;1.77;;
7935;SDS011;4013;49.744;8.118;2024-02-14T10:25:50;3.83;;;2.13;;
7935;SDS011;4013;49.744;8.118;2024-02-14T10:28:17;2.53;;;2.00;;
7935;SDS011;4013;49.744;8.118;2024-02-14T10:30:46;2.87;;;2.10;;
7935;SDS011;4013;49.744;8.118;2024-02-14T10:33:15;2.87;;;2.20;;
7935;SDS011;4013;49.744;8.118;2024-02-14T10:35:42;4.60;;;3.40;;
7935;SDS011;4013;49.744;8.118;2024-02-14T10:38:10;3.87;;;2.80;;
7935;SDS011;4013;49.744;8.118;2024-02-14T10:40:39;3.47;;;2.20;;
7935;SDS011;4013;49.744;8.118;2024-02-14T10:43:07;2.93;;;1.90;;
7935;SDS011;4013;49.744;8.118;2024-02-14T10:45:35;2.50;;;2.10;;
7935;SDS011;4013;49.744;8.118;2024-02-14T10:48:04;4.07;;;2.03;;
7935;SDS011;4013;49.744;8.118;2024-02-14T10:50:33;2.50;;;2.10;;
7935;SDS011;4013;49.744;8.118;2024-02-14T10:53:03;2.43;;;2.23;;
7935;SDS011;4013;49.744;8.118;2024-02-14T10:55:31;6.03;;;2.40;;
7935;SDS011;4013;49.744;8.118;2024-02-14T10:58:01;2.97;;;2.23;;
7935;SDS011;4013;49.744;8.118;2024-02-14T11:00:28;2.80;;;1.93;;
7935;SDS011;4013;49.744;8.118;2024-02-14T11:02:57;4.93;;;2.63;;
7935;SDS011;4013;49.744;8.118;2024-02-14T11:05:26;4.80;;;2.40;;
7935;SDS011;4013;49.744;8.118;2024-02-14T11:07:53;3.27;;;2.20;;
7935;SDS011;4013;49.744;8.118;2024-02-14T11:10:21;3.40;;;2.10;;
7935;SDS011;4013;49.744;8.118;2024-02-14T11:12:49;3.80;;;2.50;;
7935;SDS011;4013;49.744;8.118;2024-02-14T11:15:19;3.50;;;2.83;;
7935;SDS011;4013;49.744;8.118;2024-02-14T11:17:47;3.97;;;2.50;;
7935;SDS011;4013;49.744;8.118;2024-02-14T11:20:17;4.87;;;2.57;;
7935;SDS011;4013;49.744;8.118;2024-02-14T11:22:54;6.20;;;2.10;;
7935;SDS011;4013;49.744;8.118;2024-02-14T11:25:22;4.50;;;2.40;;
7935;SDS011;4013;49.744;8.118;2024-02-14T11:27:54;3.30;;;2.10;;
7935;SDS011;4013;49.744;8.118;2024-02-14T11:30:33;3.87;;;2.10;;
7935;SDS011;4013;49.744;8.118;2024-02-14T11:33:13;3.17;;;2.07;;
7935;SDS011;4013;49.744;8.118;2024-02-14T11:35:43;3.80;;;1.87;;
7935;SDS011;4013;49.744;8.118;2024-02-14T11:38:11;2.67;;;2.30;;
7935;SDS011;4013;49.744;8.118;2024-02-14T11:40:39;3.30;;;2.33;;
7935;SDS011;4013;49.744;8.118;2024-02-14T11:43:10;5.00;;;2.83;;
7935;SDS011;4013;49.744;8.118;2024-02-14T11:45:43;3.00;;;2.40;;
7935;SDS011;4013;49.744;8.118;2024-02-14T11:48:11;4.67;;;2.70;;
7935;SDS011;4013;49.744;8.118;2024-02-14T11:50:39;4.23;;;2.37;;
7935;SDS011;4013;49.744;8.118;2024-02-14T11:53:08;10.00;;;2.63;;
7935;SDS011;4013;49.744;8.118;2024-02-14T11:55:36;3.17;;;2.30;;
7935;SDS011;4013;49.744;8.118;2024-02-14T11:58:06;3.20;;;2.27;;
7935;SDS011;4013;49.744;8.118;2024-02-14T12:00:34;2.50;;;2.30;;
7935;SDS011;4013;49.744;8.118;2024-02-14T12:03:05;2.97;;;2.27;;
7935;SDS011;4013;49.744;8.118;2024-02-14T12:05:33;3.10;;;2.30;;
7935;SDS011;4013;49.744;8.118;2024-02-14T12:08:02;3.50;;;2.63;;
7935;SDS011;4013;49.744;8.118;2024-02-14T12:10:30;4.20;;;2.70;;
7935;SDS011;4013;49.744;8.118;2024-02-14T12:12:58;2.83;;;2.37;;
7935;SDS011;4013;49.744;8.118;2024-02-14T12:15:25;4.07;;;2.70;;
7935;SDS011;4013;49.744;8.118;2024-02-14T12:17:52;4.57;;;3.03;;
7935;SDS011;4013;49.744;8.118;2024-02-14T12:20:23;10.30;;;2.50;;
7935;SDS011;4013;49.744;8.118;2024-02-14T12:22:50;2.90;;;2.30;;
7935;SDS011;4013;49.744;8.118;2024-02-14T12:25:17;4.07;;;2.60;;
7935;SDS011;4013;49.744;8.118;2024-02-14T12:27:49;3.63;;;2.70;;
7935;SDS011;4013;49.744;8.118;2024-02-14T12:30:16;5.03;;;2.70;;
7935;SDS011;4013;49.744;8.118;2024-02-14T12:32:44;5.33;;;2.50;;
7935;SDS011;4013;49.744;8.118;2024-02-14T12:35:11;3.17;;;2.60;;
7935;SDS011;4013;49.744;8.118;2024-02-14T12:37:39;4.17;;;2.80;;
7935;SDS011;4013;49.744;8.118;2024-02-14T12:40:07;2.77;;;2.57;;
7935;SDS011;4013;49.744;8.118;2024-02-14T12:42:35;3.90;;;2.37;;
7935;SDS011;4013;49.744;8.118;2024-02-14T12:45:02;3.33;;;2.60;;
7935;SDS011;4013;49.744;8.118;2024-02-14T12:47:29;6.70;;;2.60;;
7935;SDS011;4013;49.744;8.118;2024-02-14T12:49:59;4.47;;;2.67;;
7935;SDS011;4013;49.744;8.118;2024-02-14T12:52:27;3.60;;;2.70;;
7935;SDS011;4013;49.744;8.118;2024-02-14T12:54:55;4.90;;;2.33;;
7935;SDS011;4013;49.744;8.118;2024-02-14T12:57:22;2.90;;;2.50;;
7935;SDS011;4013;49.744;8.118;2024-02-14T12:59:49;2.80;;;2.57;;
7935;SDS011;4013;49.744;8.118;2024-02-14T13:02:16;10.63;;;2.60;;
7935;SDS011;4013;49.744;8.118;2024-02-14T13:04:43;3.10;;;2.50;;
7935;SDS011;4013;49.744;8.118;2024-02-14T13:07:10;2.90;;;2.10;;
7935;SDS011;4013;49.744;8.118;2024-02-14T13:09:37;5.33;;;3.10;;
7935;SDS011;4013;49.744;8.118;2024-02-14T13:12:07;3.80;;;2.77;;
7935;SDS011;4013;49.744;8.118;2024-02-14T13:14:34;6.97;;;2.80;;
7935;SDS011;4013;49.744;8.118;2024-02-14T13:17:01;4.00;;;2.73;;
7935;SDS011;4013;49.744;8.118;2024-02-14T13:19:30;3.63;;;2.67;;
7935;SDS011;4013;49.744;8.118;2024-02-14T13:21:57;2.43;;;2.23;;
7935;SDS011;4013;49.744;8.118;2024-02-14T13:24:23;3.13;;;2.80;;
7935;SDS011;4013;49.744;8.118;2024-02-14T13:26:50;4.40;;;2.33;;
7935;SDS011;4013;49.744;8.118;2024-02-14T13:29:19;2.70;;;2.47;;
7935;SDS011;4013;49.744;8.118;2024-02-14T13:31:46;3.50;;;2.37;;
7935;SDS011;4013;49.744;8.118;2024-02-14T13:34:16;4.37;;;2.60;;
7935;SDS011;4013;49.744;8.118;2024-02-14T13:36:44;2.90;;;2.57;;
7935;SDS011;4013;49.744;8.118;2024-02-14T13:39:12;2.60;;;2.20;;
7935;SDS011;4013;49.744;8.118;2024-02-14T13:41:39;3.13;;;2.83;;
7935;SDS011;4013;49.744;8.118;2024-02-14T13:44:09;3.10;;;2.20;;
7935;SDS011;4013;49.744;8.118;2024-02-14T13:46:38;4.00;;;2.60;;
7935;SDS011;4013;49.744;8.118;2024-02-14T13:49:10;2.17;;;1.87;;
7935;SDS011;4013;49.744;8.118;2024-02-14T13:51:41;3.07;;;2.40;;
7935;SDS011;4013;49.744;8.118;2024-02-14T13:54:08;3.00;;;2.10;;
7935;SDS011;4013;49.744;8.118;2024-02-14T13:56:35;6.30;;;3.30;;
7935;SDS011;4013;49.744;8.118;2024-02-14T13:59:02;3.23;;;2.57;;
7935;SDS011;4013;49.744;8.118;2024-02-14T14:01:29;3.20;;;2.37;;
7935;SDS011;4013;49.744;8.118;2024-02-14T14:03:57;3.97;;;2.33;;
7935;SDS011;4013;49.744;8.118;2024-02-14T14:06:24;3.57;;;2.17;;
7935;SDS011;4013;49.744;8.118;2024-02-14T14:08:51;3.13;;;2.10;;
7935;SDS011;4013;49.744;8.118;2024-02-14T14:11:18;2.23;;;1.97;;
7935;SDS011;4013;49.744;8.118;2024-02-14T14:13:45;3.57;;;2.17;;
7935;SDS011;4013;49.744;8.118;2024-02-14T14:16:12;2.40;;;2.10;;
7935;SDS011;4013;49.744;8.118;2024-02-14T14:18:39;3.30;;;1.67;;
7935;SDS011;4013;49.744;8.118;2024-02-14T14:21:08;3.53;;;1.70;;
7935;SDS011;4013;49.744;8.118;2024-02-14T14:23:35;2.30;;;1.73;;
7935;SDS011;4013;49.744;8.118;2024-02-14T14:26:02;2.00;;;1.70;;
7935;SDS011;4013;49.744;8.118;2024-02-14T14:28:28;1.70;;;1.60;;
7935;SDS011;4013;49.744;8.118;2024-02-14T14:30:57;2.00;;;1.80;;
7935;SDS011;4013;49.744;8.118;2024-02-14T14:33:25;2.73;;;1.47;;
7935;SDS011;4013;49.744;8.118;2024-02-14T14:35:52;3.50;;;2.40;;
7935;SDS011;4013;49.744;8.118;2024-02-14T14:38:21;2.37;;;2.10;;
7935;SDS011;4013;49.744;8.118;2024-02-14T14:40:48;2.93;;;2.40;;
7935;SDS011;4013;49.744;8.118;2024-02-14T14:43:15;1.90;;;1.70;;
7935;SDS011;4013;49.744;8.118;2024-02-14T14:45:44;2.83;;;2.00;;
7935;SDS011;4013;49.744;8.118;2024-02-14T14:48:11;3.10;;;2.03;;
7935;SDS011;4013;49.744;8.118;2024-02-14T14:50:38;2.30;;;1.80;;
7935;SDS011;4013;49.744;8.118;2024-02-14T14:53:05;2.40;;;1.60;;
7935;SDS011;4013;49.744;8.118;2024-02-14T14:55:50;5.43;;;2.10;;
7935;SDS011;4013;49.744;8.118;2024-02-14T14:58:19;1.83;;;1.60;;
7935;SDS011;4013;49.744;8.118;2024-02-14T15:00:47;1.93;;;1.77;;
7935;SDS011;4013;49.744;8.118;2024-02-14T15:03:14;1.73;;;1.60;;
7935;SDS011;4013;49.744;8.118;2024-02-14T15:05:41;1.70;;;1.60;;
7935;SDS011;4013;49.744;8.118;2024-02-14T15:08:08;2.20;;;1.60;;
7935;SDS011;4013;49.744;8.118;2024-02-14T15:10:35;1.97;;;1.70;;
7935;SDS011;4013;49.744;8.118;2024-02-14T15:13:04;1.90;;;1.70;;
7935;SDS011;4013;49.744;8.118;2024-02-14T15:15:33;2.43;;;1.63;;
7935;SDS011;4013;49.744;8.118;2024-02-14T15:18:01;1.50;;;1.40;;
7935;SDS011;4013;49.744;8.118;2024-02-14T15:20:28;1.70;;;1.60;;
7935;SDS011;4013;49.744;8.118;2024-02-14T15:22:56;1.97;;;1.73;;
7935;SDS011;4013;49.744;8.118;2024-02-14T15:25:23;2.47;;;1.70;;
7935;SDS011;4013;49.744;8.118;2024-02-14T15:27:50;2.57;;;2.00;;
7935;SDS011;4013;49.744;8.118;2024-02-14T15:30:22;2.30;;;1.90;;
7935;SDS011;4013;49.744;8.118;2024-02-14T15:33:06;1.93;;;1.83;;
7935;SDS011;4013;49.744;8.118;2024-02-14T15:35:48;3.07;;;2.13;;
7935;SDS011;4013;49.744;8.118;2024-02-14T15:38:16;2.27;;;1.83;;
7935;SDS011;4013;49.744;8.118;2024-02-14T15:40:44;2.30;;;2.07;;
7935;SDS011;4013;49.744;8.118;2024-02-14T15:43:11;2.33;;;2.13;;
7935;SDS011;4013;49.744;8.118;2024-02-14T15:45:40;2.10;;;1.90;;
7935;SDS011;4013;49.744;8.118;2024-02-14T15:48:07;1.73;;;1.63;;
7935;SDS011;4013;49.744;8.118;2024-02-14T15:50:34;2.10;;;1.90;;
7935;SDS011;4013;49.744;8.118;2024-02-14T15:53:02;2.13;;;1.90;;
7935;SDS011;4013;49.744;8.118;2024-02-14T15:55:30;2.43;;;2.23;;
7935;SDS011;4013;49.744;8.118;2024-02-14T15:57:57;1.80;;;1.60;;
7935;SDS011;4013;49.744;8.118;2024-02-14T16:00:24;1.70;;;1.60;;
7935;SDS011;4013;49.744;8.118;2024-02-14T16:02:53;2.10;;;1.63;;
7935;SDS011;4013;49.744;8.118;2024-02-14T16:05:20;2.80;;;1.77;;
7935;SDS011;4013;49.744;8.118;2024-02-14T16:07:47;2.07;;;1.67;;
7935;SDS011;4013;49.744;8.118;2024-02-14T16:10:14;2.80;;;1.90;;
7935;SDS011;4013;49.744;8.118;2024-02-14T16:12:42;2.00;;;1.80;;
7935;SDS011;4013;49.744;8.118;2024-02-14T16:15:10;2.57;;;1.70;;
7935;SDS011;4013;49.744;8.118;2024-02-14T16:17:37;2.20;;;1.63;;
7935;SDS011;4013;49.744;8.118;2024-02-14T16:20:07;2.13;;;1.73;;
7935;SDS011;4013;49.744;8.118;2024-02-14T16:22:37;2.87;;;2.00;;
7935;SDS011;4013;49.744;8.118;2024-02-14T16:25:05;1.90;;;1.70;;
7935;SDS011;4013;49.744;8.118;2024-02-14T16:27:33;1.93;;;1.60;;
7935;SDS011;4013;49.744;8.118;2024-02-14T16:30:01;2.10;;;1.90;;
7935;SDS011;4013;49.744;8.118;2024-02-14T16:32:30;1.70;;;1.60;;
7935;SDS011;4013;49.744;8.118;2024-02-14T16:34:57;1.67;;;1.50;;
7935;SDS011;4013;49.744;8.118;2024-02-14T16:37:26;1.60;;;1.50;;
7935;SDS011;4013;49.744;8.118;2024-02-14T16:39:53;1.93;;;1.67;;
7935;SDS011;4013;49.744;8.118;2024-02-14T16:42:20;2.00;;;1.80;;
7935;SDS011;4013;49.744;8.118;2024-02-14T16:44:47;1.93;;;1.83;;
7935;SDS011;4013;49.744;8.118;2024-02-14T16:47:15;2.43;;;1.70;;
7935;SDS011;4013;49.744;8.118;2024-02-14T16:49:42;1.60;;;1.50;;
7935;SDS011;4013;49.744;8.118;2024-02-14T16:52:10;2.37;;;1.80;;
7935;SDS011;4013;49.744;8.118;2024-02-14T16:54:39;2.23;;;1.83;;
7935;SDS011;4013;49.744;8.118;2024-02-14T16:57:06;2.37;;;2.07;;
7935;SDS011;4013;49.744;8.118;2024-02-14T16:59:35;1.90;;;1.80;;
7935;SDS011;4013;49.744;8.118;2024-02-14T17:02:02;2.70;;;1.90;;
7935;SDS011;4013;49.744;8.118;2024-02-14T17:04:31;2.43;;;1.43;;
7935;SDS011;4013;49.744;8.118;2024-02-14T17:06:58;1.87;;;1.73;;
7935;SDS011;4013;49.744;8.118;2024-02-14T17:09:25;2.00;;;1.70;;
7935;SDS011;4013;49.744;8.118;2024-02-14T17:11:53;2.33;;;1.87;;
7935;SDS011;4013;49.744;8.118;2024-02-14T17:14:21;1.83;;;1.73;;
7935;SDS011;4013;49.744;8.118;2024-02-14T17:16:49;1.90;;;1.70;;
7935;SDS011;4013;49.744;8.118;2024-02-14T17:19:18;2.23;;;2.03;;
7935;SDS011;4013;49.744;8.118;2024-02-14T17:21:45;1.77;;;1.67;;
7935;SDS011;4013;49.744;8.118;2024-02-14T17:24:12;2.63;;;2.20;;
7935;SDS011;4013;49.744;8.118;2024-02-14T17:26:39;2.10;;;2.00;;
7935;SDS011;4013;49.744;8.118;2024-02-14T17:29:08;2.23;;;1.70;;
7935;SDS011;4013;49.744;8.118;2024-02-14T17:31:35;1.70;;;1.60;;
7935;SDS011;4013;49.744;8.118;2024-02-14T17:34:03;2.10;;;1.90;;
7935;SDS011;4013;49.744;8.118;2024-02-14T17:36:30;2.67;;;2.10;;
7935;SDS011;4013;49.744;8.118;2024-02-14T17:38:57;3.57;;;2.37;;
7935;SDS011;4013;49.744;8.118;2024-02-14T17:41:24;4.47;;;2.30;;
7935;SDS011;4013;49.744;8.118;2024-02-14T17:43:51;3.77;;;2.30;;
7935;SDS011;4013;49.744;8.118;2024-02-14T17:46:20;3.30;;;2.20;;
7935;SDS011;4013;49.744;8.118;2024-02-14T17:48:47;2.60;;;2.40;;
7935;SDS011;4013;49.744;8.118;2024-02-14T17:51:14;2.03;;;1.83;;
7935;SDS011;4013;49.744;8.118;2024-02-14T17:53:42;2.43;;;2.10;;
7935;SDS011;4013;49.744;8.118;2024-02-14T17:56:09;2.27;;;2.07;;
7935;SDS011;4013;49.744;8.118;2024-02-14T17:58:36;2.10;;;1.90;;
7935;SDS011;4013;49.744;8.118;2024-02-14T18:01:03;2.53;;;2.20;;
7935;SDS011;4013;49.744;8.118;2024-02-14T18:03:32;2.47;;;2.00;;
7935;SDS011;4013;49.744;8.118;2024-02-14T18:05:59;2.53;;;2.10;;
7935;SDS011;4013;49.744;8.118;2024-02-14T18:08:27;2.23;;;2.03;;
7935;SDS011;4013;49.744;8.118;2024-02-14T18:10:54;2.37;;;2.10;;
7935;SDS011;4013;49.744;8.118;2024-02-14T18:13:22;2.10;;;1.97;;
7935;SDS011;4013;49.744;8.118;2024-02-14T18:15:49;1.90;;;1.80;;
7935;SDS011;4013;49.744;8.118;2024-02-14T18:18:16;1.97;;;1.80;;
7935;SDS011;4013;49.744;8.118;2024-02-14T18:20:47;2.60;;;2.03;;
7935;SDS011;4013;49.744;8.118;2024-02-14T18:23:14;2.63;;;2.40;;
7935;SDS011;4013;49.744;8.118;2024-02-14T18:25:42;2.37;;;2.03;;
7935;SDS011;4013;49.744;8.118;2024-02-14T18:28:10;2.30;;;2.10;;
7935;SDS011;4013;49.744;8.118;2024-02-14T18:30:38;1.80;;;1.70;;
7935;SDS011;4013;49.744;8.118;2024-02-14T18:33:04;3.13;;;2.23;;
7935;SDS011;4013;49.744;8.118;2024-02-14T18:35:36;1.70;;;1.60;;
7935;SDS011;4013;49.744;8.118;2024-02-14T18:38:05;1.90;;;1.80;;
7935;SDS011;4013;49.744;8.118;2024-02-14T18:40:33;2.20;;;2.00;;
7935;SDS011;4013;49.744;8.118;2024-02-14T18:43:00;2.83;;;2.57;;
7935;SDS011;4013;49.744;8.118;2024-02-14T18:45:28;2.47;;;2.20;;
7935;SDS011;4013;49.744;8.118;2024-02-14T18:47:56;2.20;;;2.00;;
7935;SDS011;4013;49.744;8.118;2024-02-14T18:50:23;2.77;;;2.20;;
7935;SDS011;4013;49.744;8.118;2024-02-14T18:52:51;2.23;;;1.90;;
7935;SDS011;4013;49.744;8.118;2024-02-14T18:55:20;2.80;;;1.90;;
7935;SDS011;4013;49.744;8.118;2024-02-14T18:57:47;2.30;;;2.10;;
7935;SDS011;4013;49.744;8.118;2024-02-14T19:00:14;3.27;;;2.57;;
7935;SDS011;4013;49.744;8.118;2024-02-14T19:02:41;2.50;;;2.30;;
7935;SDS011;4013;49.744;8.118;2024-02-14T19:05:08;5.03;;;2.57;;
7935;SDS011;4013;49.744;8.118;2024-02-14T19:07:36;4.00;;;2.40;;
7935;SDS011;4013;49.744;8.118;2024-02-14T19:10:03;4.37;;;2.33;;
7935;SDS011;4013;49.744;8.118;2024-02-14T19:12:33;2.60;;;2.30;;
7935;SDS011;4013;49.744;8.118;2024-02-14T19:15:00;3.83;;;2.30;;
7935;SDS011;4013;49.744;8.118;2024-02-14T19:17:29;2.57;;;2.30;;
7935;SDS011;4013;49.744;8.118;2024-02-14T19:19:57;3.53;;;2.60;;
7935;SDS011;4013;49.744;8.118;2024-02-14T19:22:24;4.97;;;3.03;;
7935;SDS011;4013;49.744;8.118;2024-02-14T19:24:51;2.90;;;2.60;;
7935;SDS011;4013;49.744;8.118;2024-02-14T19:27:19;3.73;;;2.40;;
7935;SDS011;4013;49.744;8.118;2024-02-14T19:29:48;3.80;;;2.70;;
7935;SDS011;4013;49.744;8.118;2024-02-14T19:32:15;3.63;;;2.50;;
7935;SDS011;4013;49.744;8.118;2024-02-14T19:34:42;4.60;;;2.40;;
7935;SDS011;4013;49.744;8.118;2024-02-14T19:37:09;2.63;;;2.43;;
7935;SDS011;4013;49.744;8.118;2024-02-14T19:39:36;4.37;;;2.57;;
7935;SDS011;4013;49.744;8.118;2024-02-14T19:42:06;3.27;;;2.57;;
7935;SDS011;4013;49.744;8.118;2024-02-14T19:44:32;3.90;;;2.53;;
7935;SDS011;4013;49.744;8.118;2024-02-14T19:47:01;4.27;;;2.70;;
7935;SDS011;4013;49.744;8.118;2024-02-14T19:49:29;2.93;;;2.40;;
7935;SDS011;4013;49.744;8.118;2024-02-14T19:51:56;4.87;;;3.37;;
7935;SDS011;4013;49.744;8.118;2024-02-14T19:54:23;3.50;;;2.60;;
7935;SDS011;4013;49.744;8.118;2024-02-14T19:56:50;3.90;;;2.50;;
7935;SDS011;4013;49.744;8.118;2024-02-14T19:59:19;3.10;;;2.80;;
7935;SDS011;4013;49.744;8.118;2024-02-14T20:01:46;3.83;;;3.00;;
7935;SDS011;4013;49.744;8.118;2024-02-14T20:04:14;3.70;;;2.97;;
7935;SDS011;4013;49.744;8.118;2024-02-14T20:06:41;5.33;;;2.77;;
7935;SDS011;4013;49.744;8.118;2024-02-14T20:09:08;5.27;;;3.23;;
7935;SDS011;4013;49.744;8.118;2024-02-14T20:11:36;3.63;;;2.73;;
7935;SDS011;4013;49.744;8.118;2024-02-14T20:14:03;5.10;;;3.00;;
7935;SDS011;4013;49.744;8.118;2024-02-14T20:16:30;3.57;;;3.10;;
7935;SDS011;4013;49.744;8.118;2024-02-14T20:18:58;5.53;;;3.60;;
7935;SDS011;4013;49.744;8.118;2024-02-14T20:21:26;4.37;;;2.80;;
7935;SDS011;4013;49.744;8.118;2024-02-14T20:23:55;3.10;;;2.70;;
7935;SDS011;4013;49.744;8.118;2024-02-14T20:26:30;3.30;;;3.00;;
7935;SDS011;4013;49.744;8.118;2024-02-14T20:28:57;3.37;;;2.80;;
7935;SDS011;4013;49.744;8.118;2024-02-14T20:31:24;4.77;;;2.97;;
7935;SDS011;4013;49.744;8.118;2024-02-14T20:33:53;4.40;;;2.80;;
7935;SDS011;4013;49.744;8.118;2024-02-14T20:36:19;3.50;;;2.83;;
7935;SDS011;4013;49.744;8.118;2024-02-14T20:38:48;5.47;;;3.13;;
7935;SDS011;4013;49.744;8.118;2024-02-14T20:41:20;5.03;;;2.60;;
7935;SDS011;4013;49.744;8.118;2024-02-14T20:43:47;3.30;;;2.80;;
7935;SDS011;4013;49.744;8.118;2024-02-14T20:46:14;3.00;;;2.67;;
7935;SDS011;4013;49.744;8.118;2024-02-14T20:48:43;3.23;;;2.93;;